Time;durP1;ratioP1;P1;durP2;ratioP2;P2;SDS_P1;SDS_P2;PMS_P1;PMS_P2;Temp;Humidity;BMP_temperature;BMP_pressure;BME280_temperature;BME280_humidity;BME280_pressure;Samples;Min_cycle;Max_cycle;Signal;HPM_P1;HPM_P2
2024/01/23 00:01:00;;;;;;;8.32;5.68;;;21.20;40.60;;;;;;5132888;27;20019;-77
2024/01/23 00:03:28;;;;;;;10.90;5.90;;;21.10;40.60;;;;;;5114446;27;20023;-76
2024/01/23 00:05:54;;;;;;;9.82;5.88;;;21.00;40.50;;;;;;5133060;27;20134;-77
2024/01/23 00:08:20;;;;;;;8.75;5.68;;;21.00;40.50;;;;;;5133115;27;20031;-77
2024/01/23 00:10:46;;;;;;;8.88;5.78;;;21.10;40.50;;;;;;5132423;27;20035;-77
2024/01/23 00:13:12;;;;;;;7.68;5.28;;;21.10;40.50;;;;;;5131827;27;20481;-77
2024/01/23 00:15:38;;;;;;;8.48;5.53;;;21.10;40.40;;;;;;5132375;27;20126;-77
2024/01/23 00:18:06;;;;;;;9.65;5.95;;;21.10;40.40;;;;;;5132793;27;20367;-78
2024/01/23 00:20:32;;;;;;;7.40;5.10;;;21.10;40.40;;;;;;5132498;27;20063;-77
2024/01/23 00:22:58;;;;;;;6.65;4.78;;;21.00;40.30;;;;;;5132524;27;20042;-77
2024/01/23 00:25:24;;;;;;;7.60;5.65;;;21.10;40.50;;;;;;5114034;28;20038;-77
2024/01/23 00:27:51;;;;;;;8.95;5.32;;;21.00;40.40;;;;;;5131980;27;20043;-77
2024/01/23 00:30:17;;;;;;;5.45;4.20;;;21.00;40.50;;;;;;5132182;27;20032;-77
2024/01/23 00:32:43;;;;;;;8.35;4.97;;;21.10;40.50;;;;;;5132306;27;20039;-78
2024/01/23 00:35:09;;;;;;;8.27;5.03;;;21.00;40.40;;;;;;5109846;28;20391;-77
2024/01/23 00:37:35;;;;;;;8.02;4.80;;;21.10;40.50;;;;;;5111551;28;20035;-77
2024/01/23 00:40:03;;;;;;;6.72;4.60;;;21.00;40.40;;;;;;5111931;28;20032;-77
2024/01/23 00:42:29;;;;;;;7.43;4.57;;;21.00;40.40;;;;;;5111793;28;20111;-77
2024/01/23 00:44:55;;;;;;;7.72;5.05;;;20.90;40.50;;;;;;5111935;28;20035;-77
2024/01/23 00:47:21;;;;;;;8.40;4.57;;;21.00;40.50;;;;;;5093255;28;20028;-78
2024/01/23 00:49:47;;;;;;;7.10;5.03;;;21.10;40.60;;;;;;5111604;28;20528;-76
2024/01/23 00:52:14;;;;;;;6.55;4.47;;;21.00;40.40;;;;;;5111389;28;20040;-77
2024/01/23 00:54:40;;;;;;;9.85;5.03;;;21.00;40.30;;;;;;5111569;28;20042;-76
2024/01/23 00:57:06;;;;;;;9.90;4.95;;;21.00;40.30;;;;;;5092139;28;20048;-78
2024/01/23 00:59:32;;;;;;;6.80;5.15;;;21.10;40.40;;;;;;5111471;28;20020;-77
2024/01/23 01:01:58;;;;;;;6.70;4.68;;;21.10;40.40;;;;;;5111446;28;20024;-78
2024/01/23 01:04:24;;;;;;;7.03;5.32;;;21.00;40.20;;;;;;5111683;28;20067;-77
2024/01/23 01:06:50;;;;;;;5.78;4.63;;;21.10;40.30;;;;;;5122665;28;20031;-76
2024/01/23 01:09:16;;;;;;;9.07;5.32;;;21.10;40.30;;;;;;5132169;27;20056;-77
2024/01/23 01:11:42;;;;;;;6.35;4.28;;;21.10;40.30;;;;;;5131838;27;20039;-77
2024/01/23 01:14:09;;;;;;;6.88;4.68;;;21.20;40.20;;;;;;5113544;28;20049;-77
2024/01/23 01:16:35;;;;;;;6.18;4.07;;;21.20;40.20;;;;;;5131852;27;20170;-77
2024/01/23 01:19:01;;;;;;;5.28;4.03;;;21.10;40.30;;;;;;5132099;27;20365;-78
2024/01/23 01:21:27;;;;;;;6.63;5.07;;;21.10;40.30;;;;;;5131404;28;20039;-77
2024/01/23 01:23:53;;;;;;;6.70;4.45;;;21.10;40.20;;;;;;5131965;27;20118;-76
2024/01/23 01:26:19;;;;;;;6.70;4.53;;;21.00;40.20;;;;;;5116745;27;20027;-76
2024/01/23 01:28:45;;;;;;;6.72;4.47;;;21.00;40.30;;;;;;5135698;27;20183;-77
2024/01/23 01:31:11;;;;;;;6.60;4.60;;;21.00;40.30;;;;;;5117193;27;20133;-76
2024/01/23 01:33:37;;;;;;;5.95;4.38;;;21.00;40.20;;;;;;5117795;27;20062;-77
2024/01/23 01:36:04;;;;;;;5.50;4.10;;;21.10;40.30;;;;;;5117473;27;20111;-77
2024/01/23 01:38:30;;;;;;;4.93;3.38;;;21.00;40.30;;;;;;5117125;27;20034;-77
2024/01/23 01:40:58;;;;;;;6.20;4.70;;;21.10;40.30;;;;;;5135653;27;20039;-78
2024/01/23 01:43:29;;;;;;;6.53;4.03;;;21.20;40.30;;;;;;5117024;27;20027;-77
2024/01/23 01:46:10;;;;;;;7.60;4.93;;;21.00;40.20;;;;;;5135641;27;20045;-76
2024/01/23 01:48:37;;;;;;;6.43;4.82;;;21.10;40.40;;;;;;5135536;27;20038;-78
2024/01/23 01:51:04;;;;;;;7.60;4.70;;;21.20;40.30;;;;;;5135579;27;20126;-77
2024/01/23 01:53:31;;;;;;;5.75;4.45;;;21.10;40.30;;;;;;5135156;27;20496;-77
2024/01/23 01:55:58;;;;;;;4.95;3.97;;;21.20;40.30;;;;;;5135595;27;20110;-77
2024/01/23 01:58:27;;;;;;;5.18;3.83;;;21.10;40.30;;;;;;5135327;27;20020;-77
2024/01/23 02:00:54;;;;;;;5.65;3.72;;;21.10;40.30;;;;;;5135701;27;20116;-77
2024/01/23 02:03:21;;;;;;;5.32;3.58;;;21.20;40.20;;;;;;5135180;27;20123;-77
2024/01/23 02:05:48;;;;;;;4.65;3.40;;;21.30;40.30;;;;;;5116841;27;20039;-76
2024/01/23 02:08:16;;;;;;;4.45;3.00;;;21.30;40.20;;;;;;5115437;27;20070;-77
2024/01/23 02:10:43;;;;;;;4.18;3.67;;;21.20;40.10;;;;;;5135022;27;20042;-77
2024/01/23 02:13:10;;;;;;;5.25;3.35;;;21.20;40.00;;;;;;5134732;27;20483;-77
2024/01/23 02:15:36;;;;;;;3.38;2.45;;;21.20;40.00;;;;;;5098461;27;20035;-77
2024/01/23 02:18:02;;;;;;;4.35;2.97;;;21.20;40.00;;;;;;5134710;27;20050;-77
2024/01/23 02:20:28;;;;;;;3.78;2.90;;;21.20;40.00;;;;;;5116211;27;20062;-77
2024/01/23 02:22:55;;;;;;;4.45;3.15;;;21.20;40.00;;;;;;5098051;27;20088;-77
2024/01/23 02:25:21;;;;;;;5.28;3.92;;;21.20;40.00;;;;;;5134620;27;20023;-76
2024/01/23 02:27:47;;;;;;;4.95;3.80;;;21.20;39.90;;;;;;5134632;27;20070;-78
2024/01/23 02:30:13;;;;;;;5.93;3.83;;;21.20;39.90;;;;;;5134474;27;20045;-77
2024/01/23 02:32:43;;;;;;;5.43;3.60;;;21.20;40.00;;;;;;5134560;27;20122;-78
2024/01/23 02:35:09;;;;;;;5.18;3.85;;;21.20;40.00;;;;;;5134540;27;20114;-77
2024/01/23 02:37:37;;;;;;;5.45;4.10;;;21.20;40.10;;;;;;5133701;27;20027;-77
2024/01/23 02:40:04;;;;;;;5.20;3.80;;;21.10;40.10;;;;;;5104584;28;20035;-78
2024/01/23 02:42:30;;;;;;;7.10;3.92;;;21.10;40.10;;;;;;5114321;28;20035;-78
2024/01/23 02:44:56;;;;;;;4.93;3.38;;;21.20;40.10;;;;;;5113742;28;20031;-76
2024/01/23 02:47:22;;;;;;;5.30;3.92;;;21.10;40.00;;;;;;5113928;28;20114;-77
2024/01/23 02:49:48;;;;;;;4.03;3.08;;;21.30;40.10;;;;;;5113871;28;20032;-77
2024/01/23 02:52:14;;;;;;;3.47;2.72;;;21.20;40.00;;;;;;5113572;28;20036;-78
2024/01/23 02:54:40;;;;;;;5.88;3.88;;;21.20;39.90;;;;;;5113629;28;20380;-78
2024/01/23 02:57:07;;;;;;;5.15;3.58;;;21.20;39.90;;;;;;5095292;28;20467;-76
2024/01/23 02:59:33;;;;;;;5.57;3.70;;;21.20;39.90;;;;;;5113482;28;20035;-77
2024/01/23 03:01:59;;;;;;;4.78;4.03;;;21.30;40.00;;;;;;5113211;27;20376;-76
2024/01/23 03:04:25;;;;;;;6.40;3.70;;;21.30;39.90;;;;;;5130082;27;20389;-77
2024/01/23 03:06:51;;;;;;;4.90;3.22;;;21.40;39.90;;;;;;5134175;27;20088;-77
2024/01/23 03:09:17;;;;;;;5.30;3.63;;;21.10;39.80;;;;;;5115504;27;20106;-77
2024/01/23 03:11:44;;;;;;;6.50;3.67;;;21.20;39.90;;;;;;5115437;27;20465;-77
2024/01/23 03:14:11;;;;;;;4.90;3.97;;;21.20;39.90;;;;;;5133612;27;20043;-77
2024/01/23 03:16:37;;;;;;;6.07;3.58;;;21.30;40.00;;;;;;5133635;27;20069;-77
2024/01/23 03:19:03;;;;;;;5.07;3.83;;;21.20;39.90;;;;;;5115227;27;20510;-77
2024/01/23 03:21:29;;;;;;;7.30;4.20;;;21.10;39.90;;;;;;5133779;27;20023;-78
2024/01/23 03:23:58;;;;;;;6.68;4.60;;;21.10;40.00;;;;;;5133631;27;20051;-77
2024/01/23 03:26:24;;;;;;;4.95;3.80;;;21.20;40.00;;;;;;5115291;27;20028;-78
2024/01/23 03:28:50;;;;;;;5.45;3.83;;;21.20;40.00;;;;;;5133272;27;20039;-78
2024/01/23 03:31:16;;;;;;;7.93;3.55;;;21.10;40.00;;;;;;5133395;27;20031;-77
2024/01/23 03:33:42;;;;;;;6.38;3.85;;;21.10;40.10;;;;;;5133154;27;20096;-76
2024/01/23 03:36:08;;;;;;;5.78;3.80;;;21.00;40.00;;;;;;5133346;27;20023;-78
2024/01/23 03:38:34;;;;;;;5.15;4.03;;;21.30;40.20;;;;;;5133082;27;20031;-77
2024/01/23 03:41:00;;;;;;;6.03;3.70;;;21.10;40.10;;;;;;5114998;27;20039;-78
2024/01/23 03:43:26;;;;;;;4.43;3.28;;;21.10;40.10;;;;;;5035837;28;20074;-77
2024/01/23 03:45:53;;;;;;;5.32;4.05;;;21.10;40.10;;;;;;5069642;28;20040;-76
2024/01/23 03:48:19;;;;;;;6.40;4.05;;;21.10;40.10;;;;;;5069236;28;20059;-77
2024/01/23 03:50:45;;;;;;;4.43;3.70;;;21.30;40.20;;;;;;5069150;28;20049;-77
2024/01/23 03:53:11;;;;;;;4.90;3.28;;;21.10;40.10;;;;;;5069263;28;20393;-78
2024/01/23 03:55:37;;;;;;;5.03;4.13;;;21.10;40.10;;;;;;5069358;28;20511;-76
2024/01/23 03:58:03;;;;;;;3.85;2.92;;;21.10;40.10;;;;;;5069277;28;20036;-77
2024/01/23 04:00:29;;;;;;;7.85;4.05;;;21.20;40.10;;;;;;5069460;28;20036;-77
2024/01/23 04:02:55;;;;;;;5.20;3.90;;;21.20;40.10;;;;;;5068737;28;20048;-77
2024/01/23 04:05:22;;;;;;;5.25;3.67;;;21.20;40.00;;;;;;5052512;28;20380;-77
2024/01/23 04:07:48;;;;;;;6.47;4.10;;;21.20;40.00;;;;;;5052577;28;20032;-77
2024/01/23 04:10:15;;;;;;;8.23;4.03;;;21.10;40.10;;;;;;5069354;28;20490;-78
2024/01/23 04:12:41;;;;;;;6.57;4.70;;;21.10;40.10;;;;;;5069014;28;20080;-76
2024/01/23 04:15:08;;;;;;;4.90;3.45;;;21.10;40.10;;;;;;5119277;27;20508;-78
2024/01/23 04:17:34;;;;;;;7.45;4.70;;;21.10;40.10;;;;;;5114126;27;20031;-77
2024/01/23 04:20:00;;;;;;;6.68;3.50;;;21.10;40.10;;;;;;5097365;27;20469;-77
2024/01/23 04:22:26;;;;;;;7.28;4.63;;;21.10;40.20;;;;;;5132651;27;20027;-77
2024/01/23 04:24:52;;;;;;;6.10;4.28;;;21.10;40.10;;;;;;5113763;27;20502;-77
2024/01/23 04:27:19;;;;;;;4.93;3.80;;;21.10;40.20;;;;;;5132549;27;20066;-77
2024/01/23 04:29:45;;;;;;;7.13;4.60;;;21.00;40.10;;;;;;5132168;27;20043;-77
2024/01/23 04:32:11;;;;;;;5.70;4.40;;;21.10;40.20;;;;;;5132565;27;20062;-77
2024/01/23 04:34:37;;;;;;;5.35;3.88;;;21.00;40.10;;;;;;5115264;27;20408;-76
2024/01/23 04:37:03;;;;;;;5.80;4.28;;;21.00;40.10;;;;;;5132388;27;20142;-77
2024/01/23 04:39:29;;;;;;;6.72;4.43;;;21.10;40.20;;;;;;5132403;27;20110;-77
2024/01/23 04:41:55;;;;;;;5.22;4.10;;;21.10;40.30;;;;;;5113798;27;20501;-76
2024/01/23 04:44:22;;;;;;;5.78;4.53;;;21.00;40.20;;;;;;5132282;27;20478;-77
2024/01/23 04:46:48;;;;;;;8.13;4.95;;;21.00;40.20;;;;;;5132425;27;20079;-77
2024/01/23 04:49:14;;;;;;;5.78;4.18;;;21.00;40.20;;;;;;5123612;27;20084;-77
2024/01/23 04:51:40;;;;;;;6.75;4.45;;;21.00;40.20;;;;;;5111933;28;20236;-77
2024/01/23 04:54:06;;;;;;;6.00;4.68;;;21.10;40.30;;;;;;5111548;28;20520;-76
2024/01/23 04:56:32;;;;;;;7.35;4.95;;;21.20;40.30;;;;;;5095465;28;20153;-77
2024/01/23 04:58:58;;;;;;;8.80;5.68;;;21.00;40.20;;;;;;5111689;28;20388;-77
2024/01/23 05:01:25;;;;;;;6.55;4.55;;;21.20;40.20;;;;;;5114874;28;20046;-76
2024/01/23 05:03:51;;;;;;;8.73;5.80;;;21.10;40.20;;;;;;5115917;28;20060;-77
2024/01/23 05:06:17;;;;;;;8.98;5.20;;;21.10;40.20;;;;;;5115762;28;20042;-77
2024/01/23 05:08:43;;;;;;;6.70;4.20;;;21.10;40.20;;;;;;5115600;28;20386;-77
2024/01/23 05:11:09;;;;;;;6.57;4.97;;;21.00;40.10;;;;;;5115335;28;20146;-77
2024/01/23 05:13:35;;;;;;;6.22;4.40;;;21.10;40.20;;;;;;5096952;28;20035;-76
2024/01/23 05:16:01;;;;;;;7.13;4.68;;;21.10;40.20;;;;;;5115386;28;20076;-77
2024/01/23 05:18:27;;;;;;;8.23;5.40;;;21.00;40.10;;;;;;5115554;28;20110;-77
2024/01/23 05:20:54;;;;;;;9.80;5.65;;;21.00;40.20;;;;;;5097247;28;20504;-77
2024/01/23 05:23:20;;;;;;;6.60;4.97;;;21.10;40.20;;;;;;5116013;28;20031;-77
2024/01/23 05:25:46;;;;;;;7.93;5.13;;;21.10;40.30;;;;;;5096969;28;20108;-77
2024/01/23 05:28:12;;;;;;;7.93;5.28;;;20.90;40.20;;;;;;5115498;28;20135;-77
2024/01/23 05:30:38;;;;;;;7.82;4.63;;;20.90;40.20;;;;;;5115119;28;20027;-76
2024/01/23 05:33:04;;;;;;;8.30;5.85;;;20.90;40.20;;;;;;5096986;28;20043;-76
2024/01/23 05:35:30;;;;;;;7.70;5.25;;;21.00;40.20;;;;;;5115445;28;20044;-76
2024/01/23 05:37:56;;;;;;;8.18;5.03;;;20.90;40.30;;;;;;5115298;28;20032;-76
2024/01/23 05:40:23;;;;;;;7.47;5.00;;;20.90;40.30;;;;;;5115205;28;20140;-76
2024/01/23 05:42:49;;;;;;;8.30;5.78;;;21.00;40.40;;;;;;5096756;28;20036;-77
2024/01/23 05:45:16;;;;;;;8.02;5.53;;;20.80;40.20;;;;;;5097129;28;20032;-77
2024/01/23 05:47:42;;;;;;;8.85;5.72;;;21.00;40.30;;;;;;5072207;28;20088;-77
2024/01/23 05:50:09;;;;;;;6.20;4.88;;;21.00;40.30;;;;;;5071952;28;20146;-76
2024/01/23 05:52:35;;;;;;;7.80;5.32;;;20.90;40.30;;;;;;5071836;28;20060;-78
2024/01/23 05:55:03;;;;;;;9.77;5.70;;;21.00;40.20;;;;;;5071619;28;20043;-76
2024/01/23 05:57:29;;;;;;;8.38;6.25;;;20.90;40.20;;;;;;5071759;28;20050;-78
2024/01/23 05:59:56;;;;;;;10.45;6.45;;;21.00;40.20;;;;;;5055011;28;20420;-76
2024/01/23 06:02:22;;;;;;;10.27;6.43;;;21.00;40.20;;;;;;5071588;28;20040;-77
2024/01/23 06:04:48;;;;;;;13.85;6.45;;;21.00;40.10;;;;;;5037984;28;20067;-76
2024/01/23 06:07:14;;;;;;;10.20;6.28;;;20.80;40.10;;;;;;5054805;28;20046;-78
2024/01/23 06:09:42;;;;;;;10.55;5.40;;;20.90;40.20;;;;;;5071564;28;20153;-77
2024/01/23 06:12:08;;;;;;;9.93;6.38;;;20.80;40.10;;;;;;5071187;28;20120;-76
2024/01/23 06:14:34;;;;;;;11.48;6.70;;;21.00;40.20;;;;;;5071463;28;20093;-78
2024/01/23 06:17:00;;;;;;;10.88;6.70;;;20.90;40.20;;;;;;5071648;28;20036;-78
2024/01/23 06:19:26;;;;;;;7.88;5.63;;;20.90;40.20;;;;;;5075449;28;20509;-77
2024/01/23 06:21:52;;;;;;;8.48;5.78;;;21.00;40.20;;;;;;5096214;28;20364;-76
2024/01/23 06:24:19;;;;;;;9.95;6.10;;;20.90;40.30;;;;;;5079120;28;20050;-78
2024/01/23 06:26:45;;;;;;;8.80;6.47;;;20.80;40.20;;;;;;5114250;28;20070;-77
2024/01/23 06:29:11;;;;;;;9.93;6.38;;;20.90;40.30;;;;;;5095890;28;20051;-77
2024/01/23 06:31:37;;;;;;;9.85;5.90;;;20.80;40.20;;;;;;5095899;28;20471;-77
2024/01/23 06:34:05;;;;;;;9.68;6.20;;;20.80;40.20;;;;;;5114145;28;20034;-77
2024/01/23 06:36:31;;;;;;;11.73;6.95;;;20.80;40.50;;;;;;5114298;28;20031;-77
2024/01/23 06:38:58;;;;;;;9.60;6.63;;;20.90;40.60;;;;;;5114010;28;20051;-77
2024/01/23 06:41:24;;;;;;;10.77;7.63;;;21.00;40.30;;;;;;5113888;28;20035;-77
2024/01/23 06:43:51;;;;;;;12.02;6.82;;;20.80;40.20;;;;;;5095727;28;20078;-77
2024/01/23 06:46:17;;;;;;;10.68;6.38;;;21.00;40.10;;;;;;5095697;28;20089;-77
2024/01/23 06:48:43;;;;;;;10.27;6.22;;;20.90;40.20;;;;;;5113766;28;20044;-77
2024/01/23 06:51:10;;;;;;;10.23;6.63;;;20.90;40.20;;;;;;5113615;28;20039;-78
2024/01/23 06:53:36;;;;;;;8.90;6.70;;;20.90;40.20;;;;;;5095550;28;20379;-77
2024/01/23 06:56:03;;;;;;;10.35;7.28;;;20.90;40.20;;;;;;5081847;28;21431;-78
2024/01/23 06:58:29;;;;;;;13.30;6.97;;;20.90;40.20;;;;;;5070524;28;20808;-77
2024/01/23 07:00:55;;;;;;;11.10;6.93;;;20.90;40.20;;;;;;5070692;28;20037;-77
2024/01/23 07:03:21;;;;;;;8.30;5.85;;;21.00;40.10;;;;;;5070520;28;20040;-77
2024/01/23 07:05:47;;;;;;;10.27;6.15;;;20.90;40.10;;;;;;5070660;28;20124;-77
2024/01/23 07:08:14;;;;;;;10.07;6.32;;;20.80;40.00;;;;;;5070328;28;20538;-77
2024/01/23 07:10:40;;;;;;;8.45;5.90;;;20.90;40.10;;;;;;5070409;28;20044;-77
2024/01/23 07:13:06;;;;;;;7.30;5.15;;;20.80;40.00;;;;;;5070427;28;20033;-77
2024/01/23 07:15:33;;;;;;;8.80;6.32;;;20.80;40.10;;;;;;5053566;28;20061;-77
2024/01/23 07:17:59;;;;;;;8.65;5.60;;;20.80;40.10;;;;;;5069797;28;20044;-77
2024/01/23 07:20:25;;;;;;;10.07;5.72;;;20.80;40.00;;;;;;5070513;28;20111;-78
2024/01/23 07:22:51;;;;;;;8.98;5.95;;;20.90;40.10;;;;;;5069461;28;20040;-78
2024/01/23 07:25:17;;;;;;;9.07;5.75;;;20.80;40.10;;;;;;5069273;28;20097;-77
2024/01/23 07:27:44;;;;;;;8.48;5.78;;;20.80;40.10;;;;;;5103482;28;20044;-77
2024/01/23 07:30:10;;;;;;;11.05;6.00;;;20.80;40.10;;;;;;5094400;28;20376;-77
2024/01/23 07:32:36;;;;;;;15.10;6.63;;;20.80;40.10;;;;;;5112932;28;20032;-77
2024/01/23 07:35:03;;;;;;;11.10;6.78;;;20.80;40.10;;;;;;5113352;28;20094;-78
2024/01/23 07:37:29;;;;;;;8.38;6.07;;;20.80;40.20;;;;;;5094515;28;20035;-77
2024/01/23 07:39:55;;;;;;;9.23;6.18;;;20.80;40.20;;;;;;5112991;28;20061;-77
2024/01/23 07:42:21;;;;;;;10.30;5.97;;;20.80;40.20;;;;;;5113086;28;20560;-76
2024/01/23 07:44:47;;;;;;;7.78;5.50;;;20.80;40.10;;;;;;5112800;28;20039;-78
2024/01/23 07:47:14;;;;;;;8.32;6.32;;;20.90;40.10;;;;;;5112840;28;20023;-77
2024/01/23 07:49:41;;;;;;;10.05;5.40;;;20.90;40.20;;;;;;5112711;28;20032;-77
2024/01/23 07:52:07;;;;;;;7.93;5.53;;;20.90;40.20;;;;;;5112732;28;20395;-78
2024/01/23 07:54:33;;;;;;;7.60;5.65;;;20.90;40.20;;;;;;5112662;28;20035;-77
2024/01/23 07:56:59;;;;;;;9.05;5.75;;;20.80;40.10;;;;;;5112650;28;20036;-77
2024/01/23 07:59:25;;;;;;;7.65;5.30;;;20.80;40.10;;;;;;5112787;28;20118;-77
2024/01/23 08:01:51;;;;;;;8.18;5.70;;;20.80;40.10;;;;;;5112415;28;20467;-78
2024/01/23 08:04:17;;;;;;;10.90;6.30;;;20.70;40.10;;;;;;5112450;28;20431;-78
2024/01/23 08:06:44;;;;;;;8.80;5.97;;;20.70;40.20;;;;;;5094154;28;20027;-77
2024/01/23 08:09:10;;;;;;;10.90;6.28;;;20.70;40.20;;;;;;5112664;28;20040;-78
2024/01/23 08:11:36;;;;;;;9.30;5.80;;;20.70;40.20;;;;;;5112357;28;20036;-77
2024/01/23 08:14:03;;;;;;;10.70;6.45;;;20.60;40.10;;;;;;5094180;28;20074;-76
2024/01/23 08:16:29;;;;;;;11.95;7.70;;;20.70;40.20;;;;;;5094020;28;20031;-76
2024/01/23 08:18:58;;;;;;;11.32;6.40;;;20.70;40.30;;;;;;5112332;28;20475;-77
2024/01/23 08:21:24;;;;;;;11.65;6.25;;;20.60;40.20;;;;;;5094098;28;20035;-77
2024/01/23 08:23:50;;;;;;;10.25;6.68;;;20.70;40.30;;;;;;5112331;28;20019;-76
2024/01/23 08:26:16;;;;;;;9.40;6.38;;;20.60;40.30;;;;;;5111902;28;20038;-77
2024/01/23 08:28:42;;;;;;;10.98;6.38;;;20.70;40.40;;;;;;5112011;28;20101;-77
2024/01/23 08:31:09;;;;;;;9.60;5.88;;;20.60;40.30;;;;;;5112102;28;20027;-76
2024/01/23 08:33:35;;;;;;;8.90;5.70;;;20.60;40.20;;;;;;5112008;28;20100;-77
2024/01/23 08:36:03;;;;;;;8.75;5.85;;;20.70;40.40;;;;;;5111116;28;20024;-77
2024/01/23 08:38:30;;;;;;;9.02;5.78;;;20.80;40.30;;;;;;5092689;28;20047;-77
2024/01/23 08:40:57;;;;;;;10.05;5.93;;;20.80;40.20;;;;;;5112012;28;20070;-77
2024/01/23 08:43:23;;;;;;;7.90;4.78;;;20.80;40.20;;;;;;5112022;28;20023;-77
2024/01/23 08:45:49;;;;;;;7.95;5.65;;;20.70;40.20;;;;;;5093694;28;20091;-76
2024/01/23 08:48:19;;;;;;;9.27;5.85;;;20.80;40.20;;;;;;5111885;28;20067;-77
2024/01/23 08:50:45;;;;;;;11.60;5.30;;;20.80;40.20;;;;;;5111984;28;20036;-77
2024/01/23 08:53:11;;;;;;;7.45;4.93;;;20.90;40.20;;;;;;5101786;28;20046;-77
2024/01/23 08:55:38;;;;;;;8.38;3.90;;;20.80;40.10;;;;;;5132149;28;20493;-78
2024/01/23 08:58:04;;;;;;;8.77;5.88;;;21.00;40.10;;;;;;5120332;27;20577;-77
2024/01/23 09:00:32;;;;;;;9.30;6.45;;;20.80;40.00;;;;;;5093920;28;20031;-77
2024/01/23 09:02:58;;;;;;;8.30;5.70;;;20.90;40.10;;;;;;5093412;28;20459;-75
2024/01/23 09:05:24;;;;;;;10.52;5.78;;;20.90;40.00;;;;;;5112225;28;20106;-77
2024/01/23 09:07:51;;;;;;;7.55;4.80;;;20.80;40.00;;;;;;5111694;28;20205;-76
2024/01/23 09:10:18;;;;;;;6.72;5.05;;;21.00;40.10;;;;;;5111645;28;20036;-77
2024/01/23 09:12:44;;;;;;;9.77;5.35;;;20.90;40.10;;;;;;5111813;28;20110;-77
2024/01/23 09:15:10;;;;;;;7.63;5.22;;;20.90;40.10;;;;;;5111596;28;20051;-77
2024/01/23 09:17:36;;;;;;;3.85;2.63;;;20.90;40.00;;;;;;5093266;28;20786;-77
2024/01/23 09:20:04;;;;;;;5.55;4.28;;;20.90;40.10;;;;;;5111651;28;20031;-78
2024/01/23 09:22:30;;;;;;;7.03;5.10;;;20.90;40.20;;;;;;5111255;28;20412;-77
2024/01/23 09:24:59;;;;;;;7.72;5.20;;;20.90;40.10;;;;;;5111372;28;20035;-77
2024/01/23 09:27:25;;;;;;;8.48;6.00;;;21.00;40.00;;;;;;5111522;28;20043;-77
2024/01/23 09:29:52;;;;;;;7.15;4.80;;;20.80;39.90;;;;;;5093170;28;20067;-76
2024/01/23 09:32:18;;;;;;;7.47;4.85;;;20.90;40.10;;;;;;5076457;28;20451;-77
2024/01/23 09:34:47;;;;;;;6.95;4.43;;;20.80;40.00;;;;;;5111500;28;20036;-77
2024/01/23 09:37:13;;;;;;;7.60;4.60;;;21.00;40.10;;;;;;5111704;28;20469;-77
2024/01/23 09:39:40;;;;;;;6.45;4.35;;;20.90;40.10;;;;;;5111356;28;20830;-78
2024/01/23 09:42:09;;;;;;;8.02;4.90;;;21.00;40.00;;;;;;5111643;28;20499;-77
2024/01/23 09:44:36;;;;;;;6.50;5.30;;;21.00;40.00;;;;;;5092820;28;20131;-77
2024/01/23 09:47:03;;;;;;;8.25;5.30;;;20.90;39.90;;;;;;5095883;28;20050;-78
2024/01/23 09:49:31;;;;;;;5.78;4.70;;;21.00;39.90;;;;;;5115398;28;20032;-77
2024/01/23 09:52:03;;;;;;;10.80;5.28;;;21.10;40.00;;;;;;5115194;28;20040;-77
2024/01/23 09:54:31;;;;;;;6.93;4.97;;;21.00;39.90;;;;;;5114797;28;20483;-76
2024/01/23 09:57:01;;;;;;;7.18;5.25;;;21.10;40.60;;;;;;5115134;28;20092;-77
2024/01/23 09:59:27;;;;;;;10.77;6.03;;;21.20;40.90;;;;;;5115187;28;20027;-78
2024/01/23 10:01:55;;;;;;;7.95;4.88;;;21.20;39.70;;;;;;5114804;28;20043;-77
2024/01/23 10:04:22;;;;;;;7.07;4.40;;;21.20;39.70;;;;;;5115057;28;20076;-77
2024/01/23 10:06:48;;;;;;;6.65;4.25;;;21.10;39.80;;;;;;5051625;28;20045;-77
2024/01/23 10:09:14;;;;;;;9.02;5.13;;;21.20;39.80;;;;;;5051681;28;20037;-77
2024/01/23 10:11:41;;;;;;;10.20;5.25;;;21.00;39.80;;;;;;5051532;28;20045;-77
2024/01/23 10:14:07;;;;;;;10.43;5.28;;;21.00;39.80;;;;;;5051620;28;20061;-77
2024/01/23 10:16:34;;;;;;;7.20;4.80;;;21.00;39.90;;;;;;5051396;28;20033;-77
2024/01/23 10:19:00;;;;;;;7.07;4.50;;;21.00;40.00;;;;;;5051657;28;20037;-77
2024/01/23 10:21:27;;;;;;;8.02;4.88;;;21.10;40.10;;;;;;5051572;28;20052;-77
2024/01/23 10:23:53;;;;;;;6.78;4.03;;;21.10;40.10;;;;;;5051512;28;20041;-77
2024/01/23 10:26:20;;;;;;;7.55;4.60;;;21.10;40.20;;;;;;5034726;28;20528;-77
2024/01/23 10:28:47;;;;;;;9.45;5.85;;;21.10;40.10;;;;;;5034317;28;20201;-77
2024/01/23 10:31:14;;;;;;;9.38;5.50;;;21.00;40.10;;;;;;5031249;28;20057;-77
2024/01/23 10:33:40;;;;;;;9.10;5.22;;;21.00;40.10;;;;;;5031177;28;20081;-77
2024/01/23 10:36:10;;;;;;;6.97;4.93;;;20.90;40.10;;;;;;5031304;28;20048;-77
2024/01/23 10:38:36;;;;;;;8.25;5.20;;;21.00;40.10;;;;;;5080948;28;20086;-77
2024/01/23 10:41:07;;;;;;;6.82;5.18;;;21.00;40.10;;;;;;5074459;28;20174;-77
2024/01/23 10:43:35;;;;;;;5.95;4.78;;;20.80;40.00;;;;;;5073993;28;20127;-76
2024/01/23 10:46:02;;;;;;;5.32;4.30;;;21.00;40.10;;;;;;5090913;28;20492;-77
2024/01/23 10:48:30;;;;;;;4.75;3.67;;;21.00;40.10;;;;;;5074033;28;20043;-76
2024/01/23 10:51:18;;;;;;;8.88;4.40;;;21.00;40.10;;;;;;5091296;28;20153;-75
2024/01/23 10:53:57;;;;;;;7.80;5.15;;;21.00;40.20;;;;;;5074208;28;20143;-78
2024/01/23 10:56:31;;;;;;;7.72;4.85;;;21.10;40.30;;;;;;5090637;28;20494;-76
2024/01/23 10:59:07;;;;;;;6.32;4.72;;;21.00;40.20;;;;;;5089834;28;20048;-77
2024/01/23 11:01:38;;;;;;;7.00;4.78;;;21.00;40.10;;;;;;5095722;28;20181;-77
2024/01/23 11:04:04;;;;;;;7.75;4.55;;;21.00;40.10;;;;;;5113686;28;20497;-76
2024/01/23 11:06:34;;;;;;;7.32;4.85;;;21.00;40.10;;;;;;5113649;28;20043;-78
2024/01/23 11:09:07;;;;;;;6.78;4.13;;;21.10;40.10;;;;;;5095124;28;20066;-77
2024/01/23 11:11:49;;;;;;;6.78;4.20;;;21.10;40.10;;;;;;5113675;28;20035;-77
2024/01/23 11:14:26;;;;;;;6.50;4.53;;;21.10;40.00;;;;;;5129655;27;20046;-77
2024/01/23 11:17:09;;;;;;;6.50;4.68;;;21.10;40.00;;;;;;5113335;28;20036;-77
2024/01/23 11:19:43;;;;;;;7.15;3.70;;;21.20;40.00;;;;;;5113338;28;20031;-77
2024/01/23 11:22:09;;;;;;;6.28;4.43;;;21.30;40.10;;;;;;5094753;28;20359;-77
2024/01/23 11:25:03;;;;;;;4.05;3.30;;;21.30;40.00;;;;;;5113210;28;20034;-78
2024/01/23 11:27:31;;;;;;;5.60;4.20;;;21.30;39.90;;;;;;4994088;28;20157;-76
2024/01/23 11:29:59;;;;;;;4.75;3.58;;;21.30;39.90;;;;;;4994376;28;20498;-78
2024/01/23 11:32:28;;;;;;;6.22;4.72;;;21.40;39.80;;;;;;5010408;28;20153;-77
2024/01/23 11:35:11;;;;;;;7.18;5.32;;;21.40;39.80;;;;;;5010445;28;20065;-78
2024/01/23 11:37:54;;;;;;;7.25;5.15;;;21.40;39.80;;;;;;5010178;28;20069;-78
2024/01/23 11:40:34;;;;;;;9.45;5.18;;;21.40;39.70;;;;;;5010738;28;20433;-77
2024/01/23 11:43:05;;;;;;;6.75;5.05;;;21.50;39.80;;;;;;4994017;28;20062;-77
2024/01/23 11:45:33;;;;;;;8.65;5.80;;;21.40;39.70;;;;;;5010279;28;20077;-78
2024/01/23 11:48:08;;;;;;;7.20;5.03;;;21.40;39.70;;;;;;5010208;28;20521;-77
2024/01/23 11:50:36;;;;;;;7.60;5.05;;;21.50;39.70;;;;;;4954550;28;20043;-77
2024/01/23 11:53:02;;;;;;;9.05;5.70;;;21.40;39.60;;;;;;4970746;28;20057;-77
2024/01/23 11:55:29;;;;;;;7.15;5.07;;;21.50;39.70;;;;;;4971146;28;20146;-78
2024/01/23 11:58:00;;;;;;;7.57;5.32;;;21.50;39.70;;;;;;4970747;28;20451;-77
2024/01/23 12:00:27;;;;;;;7.28;5.03;;;21.60;39.70;;;;;;4971149;28;20066;-77
2024/01/23 12:02:53;;;;;;;7.60;5.45;;;21.40;39.50;;;;;;4970983;28;20042;-77
2024/01/23 12:05:19;;;;;;;11.38;5.35;;;21.50;39.60;;;;;;5044675;28;20053;-76
2024/01/23 12:07:46;;;;;;;10.68;6.25;;;21.50;39.60;;;;;;5050454;28;20048;-77
2024/01/23 12:10:18;;;;;;;6.03;4.53;;;21.00;39.90;;;;;;5049380;28;20072;-77
2024/01/23 12:12:45;;;;;;;10.00;4.95;;;21.50;39.40;;;;;;5049425;28;20044;-77
2024/01/23 12:15:11;;;;;;;8.25;4.45;;;21.90;40.00;;;;;;5049352;28;20055;-77
2024/01/23 12:17:45;;;;;;;6.85;5.03;;;21.70;39.00;;;;;;5049063;28;20037;-77
2024/01/23 12:20:12;;;;;;;5.88;3.72;;;22.80;39.80;;;;;;5049440;28;20079;-78
2024/01/23 12:22:38;;;;;;;5.72;3.90;;;21.60;38.80;;;;;;5032616;28;20063;-77
2024/01/23 12:25:06;;;;;;;6.57;3.50;;;21.80;38.90;;;;;;4999238;28;20135;-78
2024/01/23 12:27:32;;;;;;;8.52;4.63;;;21.60;39.10;;;;;;5051164;28;20051;-77
2024/01/23 12:29:59;;;;;;;7.75;4.03;;;21.50;39.10;;;;;;5112026;28;20534;-77
2024/01/23 12:32:27;;;;;;;6.05;3.72;;;21.60;39.10;;;;;;5112326;28;20031;-78
2024/01/23 12:34:53;;;;;;;6.55;4.35;;;21.50;39.20;;;;;;5111897;28;20038;-78
2024/01/23 12:37:23;;;;;;;5.50;3.80;;;21.50;39.20;;;;;;5112310;28;20098;-77
2024/01/23 12:39:49;;;;;;;5.25;3.72;;;21.40;39.20;;;;;;5093803;28;20076;-78
2024/01/23 12:42:18;;;;;;;7.95;4.10;;;21.40;39.10;;;;;;5112135;28;20024;-77
2024/01/23 12:44:44;;;;;;;6.15;3.53;;;21.50;39.30;;;;;;5111706;28;20031;-77